createdAt,value
2023-04-23T00:01:04.758Z,13.5
2023-04-23T00:03:30.822Z,13.5
2023-04-23T00:05:57.002Z,13.4
2023-04-23T00:08:23.042Z,13.4
2023-04-23T00:10:49.178Z,13.4
2023-04-23T00:13:15.278Z,13.4
2023-04-23T00:15:40.452Z,13.4
2023-04-23T00:18:06.491Z,13.4
2023-04-23T00:20:32.585Z,13.5
2023-04-23T00:22:58.662Z,13.5
2023-04-23T00:25:24.749Z,13.6
2023-04-23T00:27:50.865Z,13.6
2023-04-23T00:30:17.028Z,13.7
2023-04-23T00:32:43.052Z,13.7
2023-04-23T00:35:09.174Z,13.8
2023-04-23T00:37:35.252Z,13.8
2023-04-23T00:40:01.358Z,13.9
2023-04-23T00:42:27.401Z,13.9
2023-04-23T00:44:53.481Z,13.9
2023-04-23T00:47:18.641Z,13.9
2023-04-23T00:49:44.717Z,13.9
2023-04-23T00:52:10.829Z,13.9
2023-04-23T00:54:36.874Z,13.9
2023-04-23T00:57:02.995Z,13.9
2023-04-23T00:59:29.179Z,13.9
2023-04-23T01:01:55.184Z,13.9
2023-04-23T01:04:21.267Z,13.9
2023-04-23T01:06:47.370Z,13.9
2023-04-23T01:09:13.477Z,13.9
2023-04-23T01:11:39.586Z,14
2023-04-23T01:14:05.672Z,14
2023-04-23T01:16:31.774Z,14
2023-04-23T01:18:56.872Z,14
2023-04-23T01:21:23.022Z,14.1
2023-04-23T01:23:49.053Z,14.1
2023-04-23T01:26:15.166Z,14.1
2023-04-23T01:28:41.259Z,14.1
2023-04-23T01:31:07.342Z,14.1
2023-04-23T01:33:33.424Z,14.2
2023-04-23T01:35:59.605Z,14.2
2023-04-23T01:38:25.630Z,14.2
2023-04-23T01:40:51.731Z,14.2
2023-04-23T01:43:17.831Z,14.1
2023-04-23T01:45:44.065Z,14.1
2023-04-23T01:48:10.016Z,14.1
2023-04-23T01:50:35.130Z,14.1
2023-04-23T01:53:01.271Z,14.1
2023-04-23T01:55:27.318Z,14.1
2023-04-23T01:57:53.392Z,14
2023-04-23T02:00:19.553Z,14
2023-04-23T02:02:45.612Z,14
2023-04-23T02:05:11.736Z,14
2023-04-23T02:07:37.787Z,14
2023-04-23T02:10:03.880Z,13.9
2023-04-23T02:12:30.068Z,13.9
2023-04-23T02:14:56.219Z,13.9
2023-04-23T02:17:22.200Z,13.9
2023-04-23T02:19:48.328Z,13.9
2023-04-23T02:22:13.445Z,13.8
2023-04-23T02:24:39.487Z,13.8
2023-04-23T02:27:05.576Z,13.8
2023-04-23T02:29:31.677Z,13.8
2023-04-23T02:31:57.869Z,13.8
2023-04-23T02:34:23.860Z,13.7
2023-04-23T02:36:49.968Z,13.7
2023-04-23T02:39:16.240Z,13.7
2023-04-23T02:41:42.188Z,13.7
2023-04-23T02:44:08.291Z,13.7
2023-04-23T02:46:34.347Z,13.7
2023-04-23T02:49:00.597Z,13.7
2023-04-23T02:51:26.547Z,13.6
2023-04-23T02:53:51.689Z,13.6
2023-04-23T02:56:17.760Z,13.6
2023-04-23T02:58:43.876Z,13.6
2023-04-23T03:01:09.967Z,13.6
2023-04-23T03:03:36.039Z,13.5
2023-04-23T03:06:02.246Z,13.5
2023-04-23T03:08:28.538Z,13.5
2023-04-23T03:10:54.459Z,13.5
2023-04-23T03:13:20.553Z,13.4
2023-04-23T03:15:46.655Z,13.4
2023-04-23T03:18:12.729Z,13.4
2023-04-23T03:20:38.823Z,13.4
2023-04-23T03:23:04.929Z,13.3
2023-04-23T03:25:31.069Z,13.3
2023-04-23T03:27:57.149Z,13.3
2023-04-23T03:30:23.306Z,13.3
2023-04-23T03:32:49.315Z,13.3
2023-04-23T03:35:15.516Z,13.3
2023-04-23T03:37:41.538Z,13.3
2023-04-23T03:40:07.601Z,13.2
2023-04-23T03:42:32.697Z,13.2
2023-04-23T03:44:58.875Z,13.2
2023-04-23T03:47:24.952Z,13.2
2023-04-23T03:49:51.004Z,13.2
2023-04-23T03:52:17.135Z,13.2
2023-04-23T03:54:43.230Z,13.1
2023-04-23T03:57:09.291Z,13.1
2023-04-23T03:59:35.383Z,13.1
2023-04-23T04:02:01.546Z,13.1
2023-04-23T04:04:27.682Z,13.1
2023-04-23T04:06:53.681Z,13.1
2023-04-23T04:09:19.801Z,13
2023-04-23T04:11:45.909Z,13
2023-04-23T04:14:10.992Z,13
2023-04-23T04:16:37.063Z,13
2023-04-23T04:19:03.211Z,13
2023-04-23T04:21:29.332Z,12.9
2023-04-23T04:23:55.349Z,12.9
2023-04-23T04:26:21.446Z,12.9
2023-04-23T04:28:47.652Z,12.9
2023-04-23T04:31:13.631Z,12.9
2023-04-23T04:33:39.735Z,12.9
2023-04-23T04:36:05.903Z,12.9
2023-04-23T04:38:31.961Z,12.9
2023-04-23T04:40:58.087Z,12.9
2023-04-23T04:43:24.112Z,12.9
2023-04-23T04:45:50.294Z,12.9
2023-04-23T04:48:16.324Z,12.9
2023-04-23T04:50:42.390Z,12.9
2023-04-23T04:53:08.489Z,12.9
2023-04-23T04:55:34.593Z,12.9
2023-04-23T04:58:00.679Z,12.9
2023-04-23T05:00:26.772Z,12.9
2023-04-23T05:02:52.884Z,12.9
2023-04-23T05:05:18.953Z,13
2023-04-23T05:07:45.184Z,13
2023-04-23T05:10:11.278Z,12.9
2023-04-23T05:12:37.376Z,12.9
2023-04-23T05:15:03.462Z,12.9
2023-04-23T05:17:29.558Z,12.8
2023-04-23T05:19:55.823Z,12.8
2023-04-23T05:22:21.774Z,12.8
2023-04-23T05:24:47.846Z,12.8
2023-04-23T05:27:14.001Z,12.8
2023-04-23T05:29:40.027Z,12.8
2023-04-23T05:32:06.127Z,12.8
2023-04-23T05:34:32.312Z,12.9
2023-04-23T05:36:58.330Z,13
2023-04-23T05:39:24.632Z,13
2023-04-23T05:41:50.545Z,13.1
2023-04-23T05:44:16.677Z,13.2
2023-04-23T05:46:42.785Z,13.2
2023-04-23T05:49:07.822Z,13.3
2023-04-23T05:51:33.937Z,13.4
2023-04-23T05:54:00.017Z,13.5
2023-04-23T05:56:26.102Z,13.5
2023-04-23T05:58:52.185Z,13.6
2023-04-23T06:01:18.285Z,13.6
2023-04-23T06:03:44.382Z,13.7
2023-04-23T06:06:10.724Z,13.7
2023-04-23T06:08:36.579Z,13.8
2023-04-23T06:11:02.703Z,13.8
2023-04-23T06:13:28.769Z,13.8
2023-04-23T06:15:54.906Z,13.9
2023-04-23T06:18:20.969Z,13.9
2023-04-23T06:20:47.061Z,13.9
2023-04-23T06:23:13.288Z,13.9
2023-04-23T06:25:38.346Z,14
2023-04-23T06:28:04.459Z,14
2023-04-23T06:30:30.442Z,14.1
2023-04-23T06:32:56.622Z,14.1
2023-04-23T06:35:22.655Z,14.2
2023-04-23T06:37:48.886Z,14.3
2023-04-23T06:40:14.848Z,14.3
2023-04-23T06:42:41.107Z,14.3
2023-04-23T06:45:07.025Z,14.4
2023-04-23T06:47:33.118Z,14.4
2023-04-23T06:49:59.234Z,14.4
2023-04-23T06:52:25.360Z,14.5
2023-04-23T06:54:51.510Z,14.6
2023-04-23T06:57:16.520Z,14.7
2023-04-23T06:59:42.624Z,14.8
2023-04-23T07:02:08.765Z,15
2023-04-23T07:04:34.950Z,15.1
2023-04-23T07:07:00.985Z,15.2
2023-04-23T07:09:27.012Z,15.3
2023-04-23T07:11:53.161Z,15.3
2023-04-23T07:14:19.219Z,15.4
2023-04-23T07:16:45.283Z,15.5
2023-04-23T07:19:11.442Z,15.5
2023-04-23T07:21:37.553Z,15.6
2023-04-23T07:24:03.583Z,15.6
2023-04-23T07:26:29.757Z,15.5
2023-04-23T07:28:54.795Z,15.5
2023-04-23T07:31:20.886Z,15.4
2023-04-23T07:33:47.004Z,15.4
2023-04-23T07:36:13.134Z,15.4
2023-04-23T07:38:39.238Z,15.5
2023-04-23T07:41:05.255Z,15.6
2023-04-23T07:43:31.360Z,15.7
2023-04-23T07:45:57.483Z,15.9
2023-04-23T07:48:23.541Z,16
2023-04-23T07:50:49.655Z,16
2023-04-23T07:53:15.733Z,16.1
2023-04-23T07:55:41.842Z,16.2
2023-04-23T07:58:07.926Z,16.2
2023-04-23T08:00:33.022Z,16.3
2023-04-23T08:02:59.175Z,16.4
2023-04-23T08:05:25.256Z,16.5
2023-04-23T08:07:51.361Z,16.6
2023-04-23T08:10:17.468Z,16.6
2023-04-23T08:12:43.552Z,16.6
2023-04-23T08:15:09.669Z,16.6
2023-04-23T08:17:35.742Z,16.6
2023-04-23T08:20:01.961Z,16.5
2023-04-23T08:22:27.933Z,16.5
2023-04-23T08:24:54.221Z,16.5
2023-04-23T08:27:20.165Z,16.5
2023-04-23T08:29:46.280Z,16.6
2023-04-23T08:32:11.293Z,16.6
2023-04-23T08:34:37.378Z,16.7
2023-04-23T08:37:03.666Z,16.8
2023-04-23T08:39:29.575Z,16.9
2023-04-23T08:41:55.661Z,17
2023-04-23T08:44:21.841Z,17.1
2023-04-23T08:46:47.842Z,17.3
2023-04-23T08:49:13.992Z,17.4
2023-04-23T08:51:40.059Z,17.6
2023-04-23T08:54:06.178Z,17.7
2023-04-23T08:56:32.288Z,17.9
2023-04-23T08:58:58.400Z,18
2023-04-23T09:01:24.428Z,18
2023-04-23T09:06:16.646Z,18.1
2023-04-23T09:08:41.732Z,18.2
2023-04-23T09:11:07.813Z,18.2
2023-04-23T09:13:33.936Z,18.3
2023-04-23T09:16:00.160Z,18.4
2023-04-23T09:18:26.142Z,18.5
2023-04-23T09:20:52.293Z,18.5
2023-04-23T09:23:18.300Z,18.6
2023-04-23T09:25:44.560Z,18.8
2023-04-23T09:28:10.600Z,18.9
2023-04-23T09:30:36.803Z,19.1
2023-04-23T09:33:02.670Z,19.3
2023-04-23T09:35:28.777Z,19.4
2023-04-23T09:37:54.860Z,19.5
2023-04-23T09:40:19.991Z,19.6
2023-04-23T09:42:46.077Z,19.7
2023-04-23T09:45:12.163Z,19.8
2023-04-23T09:47:38.261Z,19.9
2023-04-23T09:50:04.382Z,19.9
2023-04-23T09:52:30.457Z,20
2023-04-23T09:54:56.559Z,20.1
2023-04-23T09:57:22.649Z,20.1
2023-04-23T09:59:48.935Z,20.1
2023-04-23T10:02:14.908Z,20.1
2023-04-23T10:04:40.936Z,20.2
2023-04-23T10:07:07.019Z,20.2
2023-04-23T10:09:33.263Z,20.3
2023-04-23T10:11:58.251Z,20.4
2023-04-23T10:14:24.348Z,20.5
2023-04-23T10:16:50.554Z,20.5
2023-04-23T10:19:17.224Z,20.6
2023-04-23T10:21:42.622Z,20.6
2023-04-23T10:24:08.783Z,20.6
2023-04-23T10:26:34.805Z,20.6
2023-04-23T10:29:01.032Z,20.6
2023-04-23T10:31:27.010Z,20.6
2023-04-23T10:33:53.081Z,20.6
2023-04-23T10:36:19.290Z,20.7
2023-04-23T10:38:45.307Z,20.7
2023-04-23T10:41:11.462Z,20.8
2023-04-23T10:43:36.489Z,21
2023-04-23T10:46:02.795Z,21.1
2023-04-23T10:48:28.691Z,21.3
2023-04-23T10:50:54.786Z,21.4
2023-04-23T10:53:20.871Z,21.4
2023-04-23T10:55:47.017Z,21.5
2023-04-23T10:58:13.138Z,21.5
2023-04-23T11:00:39.209Z,21.7
2023-04-23T11:03:05.352Z,21.8
2023-04-23T11:05:31.434Z,22
2023-04-23T11:07:57.528Z,22.1
2023-04-23T11:10:23.603Z,22.2
2023-04-23T11:12:49.687Z,22.2
2023-04-23T11:15:14.911Z,22.3
2023-04-23T11:17:39.884Z,22.3
2023-04-23T11:20:06.044Z,22.4
2023-04-23T11:22:32.220Z,22.4
2023-04-23T11:24:58.282Z,22.5
2023-04-23T11:27:24.287Z,22.5
2023-04-23T11:29:50.454Z,22.5
2023-04-23T11:32:16.657Z,22.6
2023-04-23T11:34:42.537Z,22.6
2023-04-23T11:37:08.650Z,22.6
2023-04-23T11:39:34.865Z,22.7
2023-04-23T11:42:00.929Z,22.6
2023-04-23T11:44:26.929Z,22.6
2023-04-23T11:46:53.015Z,22.7
2023-04-23T11:49:18.148Z,22.7
2023-04-23T11:51:44.213Z,22.8
2023-04-23T11:54:10.307Z,22.9
2023-04-23T11:56:36.416Z,23.1
2023-04-23T11:59:02.489Z,23.2
2023-04-23T12:01:28.663Z,23.2
2023-04-23T12:03:54.688Z,23.3
2023-04-23T12:06:20.799Z,23.3
2023-04-23T12:08:46.895Z,23.3
2023-04-23T12:11:13.058Z,23.2
2023-04-23T12:13:39.076Z,23.2
2023-04-23T12:16:05.224Z,23.3
2023-04-23T12:20:57.470Z,23.4
2023-04-23T12:23:22.459Z,23.4
2023-04-23T12:25:48.579Z,23.4
2023-04-23T12:28:14.664Z,23.5
2023-04-23T12:30:40.802Z,23.5
2023-04-23T12:33:06.909Z,23.6
2023-04-23T12:35:32.984Z,23.7
2023-04-23T12:37:59.048Z,23.8
2023-04-23T12:40:25.239Z,24
2023-04-23T12:42:51.236Z,24.2
2023-04-23T12:45:17.336Z,24.4
2023-04-23T12:47:43.429Z,24.5
2023-04-23T12:50:09.608Z,24.7
2023-04-23T12:52:35.631Z,24.8
2023-04-23T12:55:00.748Z,24.9
2023-04-23T12:57:26.890Z,24.9
2023-04-23T12:59:53.009Z,24.8
2023-04-23T13:02:19.039Z,24.6
2023-04-23T13:04:45.099Z,24.5
2023-04-23T13:07:11.219Z,24.4
2023-04-23T13:09:37.367Z,24.3
2023-04-23T13:12:03.488Z,24.1
2023-04-23T13:14:29.523Z,24
2023-04-23T13:16:55.571Z,23.9
2023-04-23T13:19:21.676Z,23.8
2023-04-23T13:21:47.832Z,23.8
2023-04-23T13:24:13.858Z,23.8
2023-04-23T13:26:40.143Z,23.8
2023-04-23T13:29:06.198Z,23.8
2023-04-23T13:31:32.351Z,23.8
2023-04-23T13:33:58.386Z,23.9
2023-04-23T13:36:24.461Z,24
2023-04-23T13:38:50.574Z,24.2
2023-04-23T13:41:16.700Z,24.6
2023-04-23T13:43:42.758Z,25.3
2023-04-23T13:46:08.861Z,25.9
2023-04-23T13:48:34.938Z,26
2023-04-23T13:51:01.078Z,26.3
2023-04-23T13:53:27.127Z,26.8
2023-04-23T13:55:53.256Z,27.4
2023-04-23T13:58:18.346Z,28.2
2023-04-23T14:00:44.451Z,29
2023-04-23T14:03:10.634Z,29.5
2023-04-23T14:05:36.742Z,30
2023-04-23T14:08:02.721Z,30
2023-04-23T14:10:28.924Z,29.6
2023-04-23T14:12:54.972Z,29.1
2023-04-23T14:15:21.091Z,28.6
2023-04-23T14:17:47.115Z,28.4
2023-04-23T14:20:13.204Z,28.6
2023-04-23T14:22:39.337Z,28.9
2023-04-23T14:25:05.387Z,29.4
2023-04-23T14:27:31.549Z,30
2023-04-23T14:29:56.638Z,30.6
2023-04-23T14:32:22.699Z,30.9
2023-04-23T14:34:48.769Z,31.3
2023-04-23T14:37:14.980Z,31.7
2023-04-23T14:39:40.968Z,32
2023-04-23T14:42:07.101Z,32.1
2023-04-23T14:44:33.353Z,32
2023-04-23T14:46:59.359Z,32.1
2023-04-23T14:49:25.347Z,32.2
2023-04-23T14:51:51.533Z,32.2
2023-04-23T14:54:17.671Z,32.2
2023-04-23T14:56:43.650Z,32.2
2023-04-23T14:59:09.788Z,32
2023-04-23T15:01:34.889Z,31.6
2023-04-23T15:04:00.970Z,31.2
2023-04-23T15:06:27.022Z,30.8
2023-04-23T15:08:53.122Z,30.5
2023-04-23T15:11:19.222Z,30.4
2023-04-23T15:13:45.340Z,30.2
2023-04-23T15:16:11.431Z,29.9
2023-04-23T15:18:37.516Z,29.6
2023-04-23T15:21:03.742Z,29.2
2023-04-23T15:23:29.746Z,28.9
2023-04-23T15:25:55.818Z,28.7
2023-04-23T15:28:21.924Z,28.4
2023-04-23T15:30:48.034Z,28.1
2023-04-23T15:33:13.124Z,27.9
2023-04-23T15:35:39.219Z,27.7
2023-04-23T15:38:05.324Z,27.5
2023-04-23T15:40:31.485Z,27.4
2023-04-23T15:42:57.525Z,27.2
2023-04-23T15:45:23.634Z,27.1
2023-04-23T15:47:49.697Z,26.9
2023-04-23T15:50:15.764Z,26.7
2023-04-23T15:52:41.868Z,26.5
2023-04-23T15:55:07.979Z,26.2
2023-04-23T15:57:34.193Z,26
2023-04-23T16:00:00.174Z,25.7
2023-04-23T16:02:26.256Z,25.4
2023-04-23T16:04:51.367Z,25
2023-04-23T16:07:17.524Z,24.7
2023-04-23T16:09:43.739Z,24.4
2023-04-23T16:12:09.804Z,23.9
2023-04-23T16:14:35.938Z,23.4
2023-04-23T16:17:02.036Z,22.9
2023-04-23T16:19:28.059Z,22.4
2023-04-23T16:21:54.220Z,22
2023-04-23T16:24:20.270Z,21.7
2023-04-23T16:26:46.455Z,21.5
2023-04-23T16:29:12.406Z,21.3
2023-04-23T16:31:38.620Z,21.1
2023-04-23T16:34:04.636Z,21
2023-04-23T16:36:29.748Z,20.9
2023-04-23T16:38:55.712Z,20.7
2023-04-23T16:41:21.934Z,20.6
2023-04-23T16:43:48.051Z,20.5
2023-04-23T16:46:14.114Z,20.3
2023-04-23T16:48:40.263Z,20.2
2023-04-23T16:51:06.370Z,20
2023-04-23T16:53:32.449Z,19.5
2023-04-23T16:55:58.511Z,18.8
2023-04-23T16:58:24.659Z,18
2023-04-23T17:00:50.672Z,17.4
2023-04-23T17:03:16.838Z,16.8
2023-04-23T17:05:42.772Z,16.3
2023-04-23T17:08:08.019Z,16
2023-04-23T17:10:33.970Z,15.8
2023-04-23T17:13:00.224Z,15.7
2023-04-23T17:15:26.324Z,15.6
2023-04-23T17:17:52.396Z,15.5
2023-04-23T17:20:18.569Z,15.4
2023-04-23T17:22:44.601Z,15.4
2023-04-23T17:25:10.723Z,15.3
2023-04-23T17:27:36.776Z,15.3
2023-04-23T17:30:02.771Z,15.2
2023-04-23T17:32:29.050Z,15.1
2023-04-23T17:34:54.989Z,15.1
2023-04-23T17:37:21.172Z,15
2023-04-23T17:39:46.399Z,14.9
2023-04-23T17:42:12.383Z,14.9
2023-04-23T17:44:38.472Z,14.8
2023-04-23T17:47:04.481Z,14.8
2023-04-23T17:49:30.623Z,14.8
2023-04-23T17:51:56.788Z,14.7
2023-04-23T17:54:22.844Z,14.7
2023-04-23T17:56:48.943Z,14.7
2023-04-23T17:59:15.032Z,14.6
2023-04-23T18:01:41.093Z,14.5
2023-04-23T18:04:07.229Z,14.5
2023-04-23T18:06:33.162Z,14.4
2023-04-23T18:08:59.275Z,14.4
2023-04-23T18:11:24.401Z,14.3
2023-04-23T18:13:50.508Z,14.2
2023-04-23T18:16:16.703Z,14.2
2023-04-23T18:18:42.658Z,14.1
2023-04-23T18:21:08.935Z,14.1
2023-04-23T18:23:34.853Z,14
2023-04-23T18:26:00.953Z,13.9
2023-04-23T18:28:27.170Z,13.9
2023-04-23T18:30:53.301Z,13.8
2023-04-23T18:33:19.299Z,13.8
2023-04-23T18:35:45.328Z,13.7
2023-04-23T18:38:11.580Z,13.7
2023-04-23T18:40:37.526Z,13.6
2023-04-23T18:43:02.636Z,13.6
2023-04-23T18:45:28.737Z,13.6
2023-04-23T18:47:54.827Z,13.5
2023-04-23T18:50:20.915Z,13.4
2023-04-23T18:52:47.032Z,13.4
2023-04-23T18:55:13.106Z,13.3
2023-04-23T18:57:39.208Z,13.3
2023-04-23T19:00:05.359Z,13.3
2023-04-23T19:02:31.425Z,13.3
2023-04-23T19:04:57.506Z,13.2
2023-04-23T19:07:23.590Z,13.2
2023-04-23T19:09:49.676Z,13.2
2023-04-23T19:12:15.769Z,13.2
2023-04-23T19:14:40.883Z,13.2
2023-04-23T19:17:06.992Z,13.2
2023-04-23T19:19:33.128Z,13.2
2023-04-23T19:21:59.172Z,13.1
2023-04-23T19:24:25.259Z,13.1
2023-04-23T19:26:50.403Z,13.2
2023-04-23T19:29:16.490Z,13.2
2023-04-23T19:31:42.581Z,13.2
2023-04-23T19:34:08.684Z,13.2
2023-04-23T19:36:34.776Z,13.2
2023-04-23T19:39:00.856Z,13.2
2023-04-23T19:41:26.952Z,13.2
2023-04-23T19:43:53.056Z,13.2
2023-04-23T19:46:19.150Z,13.3
2023-04-23T19:48:45.256Z,13.2
2023-04-23T19:51:11.348Z,13.2
2023-04-23T19:53:37.434Z,13.2
2023-04-23T19:56:03.526Z,13.1
2023-04-23T19:58:28.638Z,13
2023-04-23T20:00:54.744Z,12.9
2023-04-23T20:03:20.816Z,12.8
2023-04-23T20:05:46.987Z,12.8
2023-04-23T20:08:13.022Z,12.7
2023-04-23T20:10:39.099Z,12.7
2023-04-23T20:13:05.204Z,12.7
2023-04-23T20:15:31.293Z,12.6
2023-04-23T20:17:57.422Z,12.6
2023-04-23T20:20:23.504Z,12.7
2023-04-23T20:22:49.588Z,12.6
2023-04-23T20:25:15.687Z,12.6
2023-04-23T20:27:41.761Z,12.6
2023-04-23T20:30:06.896Z,12.5
2023-04-23T20:32:32.976Z,12.5
2023-04-23T20:34:59.078Z,12.4
2023-04-23T20:37:25.185Z,12.4
2023-04-23T20:39:51.264Z,12.3
2023-04-23T20:42:17.360Z,12.3
2023-04-23T20:44:43.464Z,12.3
2023-04-23T20:47:09.552Z,12.2
2023-04-23T20:49:35.641Z,12.2
2023-04-23T20:52:01.749Z,12.1
2023-04-23T20:54:27.828Z,12.1
2023-04-23T20:56:53.939Z,12.1
2023-04-23T20:59:20.035Z,12.1
2023-04-23T21:01:45.150Z,12
2023-04-23T21:04:11.239Z,12
2023-04-23T21:06:37.344Z,11.9
2023-04-23T21:09:03.438Z,11.9
2023-04-23T21:11:29.516Z,11.9
2023-04-23T21:13:55.616Z,11.8
2023-04-23T21:16:21.727Z,11.8
2023-04-23T21:18:47.806Z,11.8
2023-04-23T21:21:13.892Z,11.7
2023-04-23T21:23:40.005Z,11.7
2023-04-23T21:26:06.080Z,11.7
2023-04-23T21:28:32.181Z,11.6
2023-04-23T21:30:58.288Z,11.6
2023-04-23T21:33:23.387Z,11.6
2023-04-23T21:35:49.481Z,11.5
2023-04-23T21:38:15.626Z,11.5
2023-04-23T21:40:41.751Z,11.5
2023-04-23T21:43:07.806Z,11.5
2023-04-23T21:45:33.911Z,11.5
2023-04-23T21:47:59.990Z,11.5
2023-04-23T21:50:26.101Z,11.5
2023-04-23T21:52:52.179Z,11.4
2023-04-23T21:55:18.287Z,11.4
2023-04-23T21:57:44.381Z,11.4
2023-04-23T22:00:10.523Z,11.4
2023-04-23T22:02:36.536Z,11.4
2023-04-23T22:05:01.649Z,11.4
2023-04-23T22:07:27.730Z,11.4
2023-04-23T22:09:53.825Z,11.3
2023-04-23T22:12:19.929Z,11.3
2023-04-23T22:14:46.017Z,11.3
2023-04-23T22:17:12.122Z,11.3
2023-04-23T22:19:38.215Z,11.3
2023-04-23T22:22:04.354Z,11.3
2023-04-23T22:24:30.392Z,11.3
2023-04-23T22:26:56.503Z,11.3
2023-04-23T22:29:22.587Z,11.3
2023-04-23T22:31:48.701Z,11.3
2023-04-23T22:34:14.860Z,11.3
2023-04-23T22:36:39.904Z,11.3
2023-04-23T22:39:06.005Z,11.3
2023-04-23T22:41:32.089Z,11.3
2023-04-23T22:43:58.190Z,11.3
2023-04-23T22:46:24.276Z,11.3
2023-04-23T22:48:50.366Z,11.3
2023-04-23T22:51:16.504Z,11.3
2023-04-23T22:53:42.568Z,11.3
2023-04-23T22:56:08.670Z,11.3
2023-04-23T22:58:34.762Z,11.3
2023-04-23T23:01:00.860Z,11.3
2023-04-23T23:03:26.965Z,11.3
2023-04-23T23:05:53.069Z,11.3
2023-04-23T23:08:18.158Z,11.3
2023-04-23T23:10:44.246Z,11.3
2023-04-23T23:13:10.371Z,11.3
2023-04-23T23:15:36.433Z,11.3
2023-04-23T23:18:02.556Z,11.3
2023-04-23T23:20:28.620Z,11.3
2023-04-23T23:22:54.736Z,11.3
2023-04-23T23:25:20.827Z,11.3
2023-04-23T23:27:46.911Z,11.3
2023-04-23T23:30:13.002Z,11.3
2023-04-23T23:32:39.104Z,11.3
2023-04-23T23:35:05.194Z,11.2
2023-04-23T23:37:31.301Z,11.2
2023-04-23T23:39:56.407Z,11.2
2023-04-23T23:42:22.499Z,11.1
2023-04-23T23:44:48.601Z,11.1
2023-04-23T23:47:14.704Z,11.1
2023-04-23T23:49:40.798Z,11
2023-04-23T23:52:06.892Z,11
2023-04-23T23:54:32.989Z,11
2023-04-23T23:56:59.064Z,11
2023-04-23T23:59:25.164Z,11
